sensor_id;sensor_type;location;lat;lon;timestamp;pressure;altitude;pressure_sealevel;temperature;humidity
22964;BME280;11648;49.306;6.934;2023-11-22T00:00:33;98914.06;;;13.81;65.14
22964;BME280;11648;49.306;6.934;2023-11-22T00:03:00;98919.38;;;13.79;65.50
22964;BME280;11648;49.306;6.934;2023-11-22T00:05:27;98920.75;;;14.03;65.62
22964;BME280;11648;49.306;6.934;2023-11-22T00:07:54;98927.88;;;14.00;65.71
22964;BME280;11648;49.306;6.934;2023-11-22T00:10:21;98917.84;;;14.17;64.96
22964;BME280;11648;49.306;6.934;2023-11-22T00:12:47;98938.34;;;13.51;66.92
22964;BME280;11648;49.306;6.934;2023-11-22T00:15:14;98947.53;;;13.28;67.22
22964;BME280;11648;49.306;6.934;2023-11-22T00:17:45;98942.69;;;13.58;66.23
22964;BME280;11648;49.306;6.934;2023-11-22T00:20:12;98950.88;;;13.40;66.13
22964;BME280;11648;49.306;6.934;2023-11-22T00:22:39;98953.75;;;13.23;65.93
22964;BME280;11648;49.306;6.934;2023-11-22T00:25:06;98951.16;;;13.20;65.98
22964;BME280;11648;49.306;6.934;2023-11-22T00:27:33;98955.00;;;13.59;64.70
22964;BME280;11648;49.306;6.934;2023-11-22T00:29:59;98951.44;;;13.61;64.34
22964;BME280;11648;49.306;6.934;2023-11-22T00:32:26;98960.00;;;13.17;64.89
22964;BME280;11648;49.306;6.934;2023-11-22T00:34:53;98961.03;;;13.03;64.96
22964;BME280;11648;49.306;6.934;2023-11-22T00:37:20;98969.25;;;12.81;64.03
22964;BME280;11648;49.306;6.934;2023-11-22T00:39:47;98972.59;;;12.94;62.92
22964;BME280;11648;49.306;6.934;2023-11-22T00:42:14;98985.94;;;12.85;63.23
22964;BME280;11648;49.306;6.934;2023-11-22T00:44:41;98986.47;;;12.33;63.66
22964;BME280;11648;49.306;6.934;2023-11-22T00:47:08;98979.84;;;12.75;62.48
22964;BME280;11648;49.306;6.934;2023-11-22T00:49:35;98987.34;;;12.34;63.04
22964;BME280;11648;49.306;6.934;2023-11-22T00:52:02;98983.78;;;12.36;63.11
22964;BME280;11648;49.306;6.934;2023-11-22T00:54:30;98996.94;;;12.44;62.61
22964;BME280;11648;49.306;6.934;2023-11-22T00:56:57;98984.59;;;12.46;62.13
22964;BME280;11648;49.306;6.934;2023-11-22T00:59:24;98998.91;;;12.18;63.24
22964;BME280;11648;49.306;6.934;2023-11-22T01:01:50;98999.81;;;12.20;62.49
22964;BME280;11648;49.306;6.934;2023-11-22T01:04:17;98991.78;;;12.30;62.36
22964;BME280;11648;49.306;6.934;2023-11-22T01:06:44;99002.25;;;12.39;62.54
22964;BME280;11648;49.306;6.934;2023-11-22T01:09:11;98991.63;;;12.46;62.07
22964;BME280;11648;49.306;6.934;2023-11-22T01:11:40;98987.09;;;12.58;61.24
22964;BME280;11648;49.306;6.934;2023-11-22T01:14:07;98988.22;;;12.33;61.29
22964;BME280;11648;49.306;6.934;2023-11-22T01:16:34;98996.91;;;12.46;61.00
22964;BME280;11648;49.306;6.934;2023-11-22T01:19:03;98992.63;;;12.35;60.66
22964;BME280;11648;49.306;6.934;2023-11-22T01:21:30;98990.94;;;12.27;60.44
22964;BME280;11648;49.306;6.934;2023-11-22T01:23:57;99003.63;;;11.79;61.08
22964;BME280;11648;49.306;6.934;2023-11-22T01:26:25;99021.22;;;11.79;61.26
22964;BME280;11648;49.306;6.934;2023-11-22T01:28:52;99019.63;;;11.46;60.50
22964;BME280;11648;49.306;6.934;2023-11-22T01:31:19;99023.03;;;11.69;59.59
22964;BME280;11648;49.306;6.934;2023-11-22T01:33:49;99021.50;;;11.30;59.71
22964;BME280;11648;49.306;6.934;2023-11-22T01:36:16;99021.47;;;11.35;59.00
22964;BME280;11648;49.306;6.934;2023-11-22T01:38:43;99029.09;;;11.82;57.93
22964;BME280;11648;49.306;6.934;2023-11-22T01:41:12;99023.03;;;11.72;57.68
22964;BME280;11648;49.306;6.934;2023-11-22T01:43:42;99025.81;;;11.39;58.50
22964;BME280;11648;49.306;6.934;2023-11-22T01:46:10;99022.34;;;11.37;58.66
22964;BME280;11648;49.306;6.934;2023-11-22T01:48:41;99028.34;;;11.60;58.04
22964;BME280;11648;49.306;6.934;2023-11-22T01:51:08;99024.78;;;11.72;57.75
22964;BME280;11648;49.306;6.934;2023-11-22T01:53:35;99021.28;;;11.67;57.94
22964;BME280;11648;49.306;6.934;2023-11-22T01:56:02;99030.19;;;11.49;58.03
22964;BME280;11648;49.306;6.934;2023-11-22T01:58:29;99032.78;;;11.55;58.00
22964;BME280;11648;49.306;6.934;2023-11-22T02:00:58;99032.72;;;11.64;57.44
22964;BME280;11648;49.306;6.934;2023-11-22T02:03:26;99042.47;;;11.52;57.84
22964;BME280;11648;49.306;6.934;2023-11-22T02:05:53;99046.06;;;11.34;58.32
22964;BME280;11648;49.306;6.934;2023-11-22T02:08:21;99053.13;;;11.29;58.55
22964;BME280;11648;49.306;6.934;2023-11-22T02:10:58;99053.91;;;11.48;58.00
22964;BME280;11648;49.306;6.934;2023-11-22T02:13:30;99058.47;;;11.05;58.95
22964;BME280;11648;49.306;6.934;2023-11-22T02:15:57;99057.41;;;11.50;57.69
22964;BME280;11648;49.306;6.934;2023-11-22T02:18:26;99049.56;;;11.42;57.98
22964;BME280;11648;49.306;6.934;2023-11-22T02:20:53;99053.13;;;11.30;58.31
22964;BME280;11648;49.306;6.934;2023-11-22T02:23:20;99059.28;;;11.25;58.46
22964;BME280;11648;49.306;6.934;2023-11-22T02:25:47;99058.41;;;11.26;58.46
22964;BME280;11648;49.306;6.934;2023-11-22T02:28:14;99056.72;;;11.08;58.73
22964;BME280;11648;49.306;6.934;2023-11-22T02:30:41;99051.50;;;10.99;58.88
22964;BME280;11648;49.306;6.934;2023-11-22T02:33:08;99056.75;;;11.01;58.53
22964;BME280;11648;49.306;6.934;2023-11-22T02:35:35;99071.69;;;11.02;58.49
22964;BME280;11648;49.306;6.934;2023-11-22T02:38:02;99077.84;;;10.92;58.72
22964;BME280;11648;49.306;6.934;2023-11-22T02:40:29;99084.03;;;10.72;59.08
22964;BME280;11648;49.306;6.934;2023-11-22T02:42:56;99082.22;;;10.94;58.95
22964;BME280;11648;49.306;6.934;2023-11-22T02:45:27;99083.06;;;11.10;58.22
22964;BME280;11648;49.306;6.934;2023-11-22T02:47:55;99087.47;;;11.00;58.56
22964;BME280;11648;49.306;6.934;2023-11-22T02:50:22;99088.38;;;10.95;58.32
22964;BME280;11648;49.306;6.934;2023-11-22T02:52:49;99087.53;;;10.76;58.85
22964;BME280;11648;49.306;6.934;2023-11-22T02:55:16;99091.06;;;10.81;58.58
22964;BME280;11648;49.306;6.934;2023-11-22T02:57:42;99092.81;;;10.76;58.06
22964;BME280;11648;49.306;6.934;2023-11-22T03:00:10;99087.53;;;10.77;58.20
22964;BME280;11648;49.306;6.934;2023-11-22T03:02:41;99093.63;;;10.88;57.76
22964;BME280;11648;49.306;6.934;2023-11-22T03:05:09;99097.16;;;10.81;57.59
22964;BME280;11648;49.306;6.934;2023-11-22T03:07:37;99105.97;;;10.77;57.79
22964;BME280;11648;49.306;6.934;2023-11-22T03:10:05;99118.28;;;10.62;58.40
22964;BME280;11648;49.306;6.934;2023-11-22T03:12:34;99117.41;;;10.58;58.33
22964;BME280;11648;49.306;6.934;2023-11-22T03:15:01;99127.91;;;10.43;58.13
22964;BME280;11648;49.306;6.934;2023-11-22T03:17:31;99126.19;;;10.37;58.76
22964;BME280;11648;49.306;6.934;2023-11-22T03:20:00;99138.44;;;10.28;58.96
22964;BME280;11648;49.306;6.934;2023-11-22T03:22:27;99148.97;;;10.26;58.90
22964;BME280;11648;49.306;6.934;2023-11-22T03:24:56;99153.34;;;10.23;59.03
22964;BME280;11648;49.306;6.934;2023-11-22T03:27:25;99157.72;;;10.21;58.79
22964;BME280;11648;49.306;6.934;2023-11-22T03:29:53;99167.41;;;10.26;59.01
22964;BME280;11648;49.306;6.934;2023-11-22T03:32:21;99163.00;;;10.30;58.56
22964;BME280;11648;49.306;6.934;2023-11-22T03:34:48;99170.88;;;10.18;59.50
22964;BME280;11648;49.306;6.934;2023-11-22T03:37:15;99182.19;;;10.03;60.22
22964;BME280;11648;49.306;6.934;2023-11-22T03:39:43;99188.34;;;10.10;59.53
22964;BME280;11648;49.306;6.934;2023-11-22T03:42:15;99184.84;;;10.05;60.24
22964;BME280;11648;49.306;6.934;2023-11-22T03:44:45;99189.25;;;10.06;59.98
22964;BME280;11648;49.306;6.934;2023-11-22T03:47:14;99192.69;;;9.96;60.78
22964;BME280;11648;49.306;6.934;2023-11-22T03:49:44;99196.31;;;10.19;60.13
22964;BME280;11648;49.306;6.934;2023-11-22T03:52:12;99198.94;;;10.16;60.23
22964;BME280;11648;49.306;6.934;2023-11-22T03:54:38;99200.63;;;10.14;60.72
22964;BME280;11648;49.306;6.934;2023-11-22T03:57:06;99205.03;;;10.12;60.66
22964;BME280;11648;49.306;6.934;2023-11-22T03:59:34;99210.38;;;10.22;60.18
22964;BME280;11648;49.306;6.934;2023-11-22T04:02:01;99213.84;;;10.21;60.07
22964;BME280;11648;49.306;6.934;2023-11-22T04:04:28;99205.97;;;10.29;60.31
22964;BME280;11648;49.306;6.934;2023-11-22T04:06:54;99202.44;;;10.24;60.27
22964;BME280;11648;49.306;6.934;2023-11-22T04:09:21;99205.13;;;10.37;59.56
22964;BME280;11648;49.306;6.934;2023-11-22T04:11:49;99209.50;;;10.38;59.10
22964;BME280;11648;49.306;6.934;2023-11-22T04:14:15;99219.13;;;10.24;59.58
22964;BME280;11648;49.306;6.934;2023-11-22T04:16:43;99221.78;;;10.26;59.11
22964;BME280;11648;49.306;6.934;2023-11-22T04:19:10;99229.53;;;9.99;59.64
22964;BME280;11648;49.306;6.934;2023-11-22T04:21:37;99237.41;;;9.92;60.12
22964;BME280;11648;49.306;6.934;2023-11-22T04:24:04;99237.31;;;9.74;59.82
22964;BME280;11648;49.306;6.934;2023-11-22T04:26:31;99245.22;;;9.77;60.10
22964;BME280;11648;49.306;6.934;2023-11-22T04:28:58;99246.06;;;9.70;60.28
22964;BME280;11648;49.306;6.934;2023-11-22T04:31:25;99253.03;;;9.61;60.39
22964;BME280;11648;49.306;6.934;2023-11-22T04:33:52;99258.22;;;9.47;60.41
22964;BME280;11648;49.306;6.934;2023-11-22T04:36:21;99262.56;;;9.45;60.24
22964;BME280;11648;49.306;6.934;2023-11-22T04:38:51;99259.06;;;9.43;60.44
22964;BME280;11648;49.306;6.934;2023-11-22T04:41:17;99262.56;;;9.42;60.93
22964;BME280;11648;49.306;6.934;2023-11-22T04:43:45;99264.28;;;9.38;61.16
22964;BME280;11648;49.306;6.934;2023-11-22T04:46:12;99270.38;;;9.30;61.62
22964;BME280;11648;49.306;6.934;2023-11-22T04:48:39;99273.00;;;9.33;60.87
22964;BME280;11648;49.306;6.934;2023-11-22T04:51:07;99269.50;;;9.34;61.79
22964;BME280;11648;49.306;6.934;2023-11-22T04:53:34;99271.34;;;9.47;60.58
22964;BME280;11648;49.306;6.934;2023-11-22T04:56:01;99266.19;;;9.61;60.66
22964;BME280;11648;49.306;6.934;2023-11-22T04:58:32;99280.19;;;9.60;60.50
22964;BME280;11648;49.306;6.934;2023-11-22T05:01:00;99283.78;;;9.75;60.32
22964;BME280;11648;49.306;6.934;2023-11-22T05:03:28;99289.03;;;9.75;60.33
22964;BME280;11648;49.306;6.934;2023-11-22T05:05:55;99296.13;;;9.84;60.35
22964;BME280;11648;49.306;6.934;2023-11-22T05:08:22;99294.41;;;9.93;60.13
22964;BME280;11648;49.306;6.934;2023-11-22T05:10:49;99306.69;;;9.99;59.43
22964;BME280;11648;49.306;6.934;2023-11-22T05:13:17;99304.97;;;9.98;58.97
22964;BME280;11648;49.306;6.934;2023-11-22T05:15:44;99303.19;;;9.94;59.58
22964;BME280;11648;49.306;6.934;2023-11-22T05:18:11;99311.94;;;9.93;59.38
22964;BME280;11648;49.306;6.934;2023-11-22T05:20:37;99316.25;;;9.80;59.48
22964;BME280;11648;49.306;6.934;2023-11-22T05:23:04;99315.38;;;9.81;59.55
22964;BME280;11648;49.306;6.934;2023-11-22T05:25:31;99318.00;;;9.80;58.90
22964;BME280;11648;49.306;6.934;2023-11-22T05:27:58;99329.41;;;9.80;59.90
22964;BME280;11648;49.306;6.934;2023-11-22T05:30:25;99332.84;;;9.75;60.34
22964;BME280;11648;49.306;6.934;2023-11-22T05:32:52;99332.03;;;9.80;60.19
22964;BME280;11648;49.306;6.934;2023-11-22T05:35:20;99335.50;;;9.76;59.94
22964;BME280;11648;49.306;6.934;2023-11-22T05:37:47;99321.56;;;9.92;59.39
22964;BME280;11648;49.306;6.934;2023-11-22T05:40:14;99317.16;;;9.91;59.70
22964;BME280;11648;49.306;6.934;2023-11-22T05:42:42;99318.03;;;9.89;59.51
22964;BME280;11648;49.306;6.934;2023-11-22T05:45:09;99313.69;;;9.92;59.57
22964;BME280;11648;49.306;6.934;2023-11-22T05:47:37;99313.75;;;10.06;58.83
22964;BME280;11648;49.306;6.934;2023-11-22T05:50:05;99308.47;;;10.02;59.22
22964;BME280;11648;49.306;6.934;2023-11-22T05:52:32;99310.16;;;9.89;58.52
22964;BME280;11648;49.306;6.934;2023-11-22T05:54:59;99317.16;;;9.84;58.80
22964;BME280;11648;49.306;6.934;2023-11-22T05:57:30;99321.44;;;9.70;59.49
22964;BME280;11648;49.306;6.934;2023-11-22T05:59:57;99318.75;;;9.61;59.33
22964;BME280;11648;49.306;6.934;2023-11-22T06:02:24;99323.94;;;9.53;59.58
22964;BME280;11648;49.306;6.934;2023-11-22T06:04:51;99330.00;;;9.40;59.77
22964;BME280;11648;49.306;6.934;2023-11-22T06:07:18;99341.31;;;9.34;60.09
22964;BME280;11648;49.306;6.934;2023-11-22T06:09:45;99348.22;;;9.20;60.74
22964;BME280;11648;49.306;6.934;2023-11-22T06:12:12;99342.13;;;9.23;61.07
22964;BME280;11648;49.306;6.934;2023-11-22T06:14:38;99340.41;;;9.28;60.42
22964;BME280;11648;49.306;6.934;2023-11-22T06:17:05;99342.06;;;9.15;60.52
22964;BME280;11648;49.306;6.934;2023-11-22T06:19:32;99340.34;;;9.20;60.20
22964;BME280;11648;49.306;6.934;2023-11-22T06:21:59;99351.00;;;9.37;60.68
22964;BME280;11648;49.306;6.934;2023-11-22T06:24:28;99360.44;;;9.15;60.90
22964;BME280;11648;49.306;6.934;2023-11-22T06:26:55;99363.78;;;8.99;61.32
22964;BME280;11648;49.306;6.934;2023-11-22T06:29:22;99359.44;;;9.03;61.42
22964;BME280;11648;49.306;6.934;2023-11-22T06:31:49;99367.56;;;9.28;60.73
22964;BME280;11648;49.306;6.934;2023-11-22T06:34:15;99377.34;;;9.49;60.06
22964;BME280;11648;49.306;6.934;2023-11-22T06:36:42;99381.69;;;9.41;60.09
22964;BME280;11648;49.306;6.934;2023-11-22T06:39:09;99381.66;;;9.38;60.76
22964;BME280;11648;49.306;6.934;2023-11-22T06:41:43;99379.06;;;9.41;59.90
22964;BME280;11648;49.306;6.934;2023-11-22T06:44:10;99377.47;;;9.61;59.82
22964;BME280;11648;49.306;6.934;2023-11-22T06:46:36;99379.28;;;9.68;59.61
22964;BME280;11648;49.306;6.934;2023-11-22T06:49:03;99381.94;;;9.70;59.16
22964;BME280;11648;49.306;6.934;2023-11-22T06:51:31;99378.34;;;9.63;59.47
22964;BME280;11648;49.306;6.934;2023-11-22T06:53:58;99391.38;;;9.48;59.58
22964;BME280;11648;49.306;6.934;2023-11-22T06:56:27;99386.94;;;9.39;59.33
22964;BME280;11648;49.306;6.934;2023-11-22T06:58:54;99385.19;;;9.43;59.23
22964;BME280;11648;49.306;6.934;2023-11-22T07:01:24;99385.97;;;9.31;59.64
22964;BME280;11648;49.306;6.934;2023-11-22T07:03:54;99386.94;;;9.39;59.25
22964;BME280;11648;49.306;6.934;2023-11-22T07:06:22;99389.34;;;9.20;58.89
22964;BME280;11648;49.306;6.934;2023-11-22T07:08:52;99393.88;;;9.34;58.75
22964;BME280;11648;49.306;6.934;2023-11-22T07:11:23;99384.34;;;9.46;59.00
22964;BME280;11648;49.306;6.934;2023-11-22T07:13:50;99385.31;;;9.57;58.25
22964;BME280;11648;49.306;6.934;2023-11-22T07:16:18;99396.69;;;9.54;57.78
22964;BME280;11648;49.306;6.934;2023-11-22T07:18:45;99403.66;;;9.49;58.57
22964;BME280;11648;49.306;6.934;2023-11-22T07:21:12;99405.34;;;9.41;58.98
22964;BME280;11648;49.306;6.934;2023-11-22T07:23:39;99409.69;;;9.37;58.86
22964;BME280;11648;49.306;6.934;2023-11-22T07:26:06;99416.63;;;9.29;59.30
22964;BME280;11648;49.306;6.934;2023-11-22T07:28:33;99421.00;;;9.30;58.47
22964;BME280;11648;49.306;6.934;2023-11-22T07:31:02;99414.94;;;9.36;59.19
22964;BME280;11648;49.306;6.934;2023-11-22T07:33:32;99420.34;;;9.54;57.99
22964;BME280;11648;49.306;6.934;2023-11-22T07:35:59;99421.19;;;9.53;58.39
22964;BME280;11648;49.306;6.934;2023-11-22T07:38:26;99423.84;;;9.52;59.30
22964;BME280;11648;49.306;6.934;2023-11-22T07:40:54;99421.22;;;9.56;58.83
22964;BME280;11648;49.306;6.934;2023-11-22T07:43:21;99414.28;;;9.61;58.74
22964;BME280;11648;49.306;6.934;2023-11-22T07:45:47;99409.97;;;9.74;58.09
22964;BME280;11648;49.306;6.934;2023-11-22T07:48:15;99405.66;;;9.80;57.67
22964;BME280;11648;49.306;6.934;2023-11-22T07:50:42;99404.84;;;9.95;57.80
22964;BME280;11648;49.306;6.934;2023-11-22T07:53:13;99408.50;;;10.09;57.40
22964;BME280;11648;49.306;6.934;2023-11-22T07:55:41;99405.94;;;10.24;57.42
22964;BME280;11648;49.306;6.934;2023-11-22T07:58:08;99390.22;;;10.30;56.42
22964;BME280;11648;49.306;6.934;2023-11-22T08:00:35;99390.22;;;10.35;56.65
22964;BME280;11648;49.306;6.934;2023-11-22T08:03:03;99393.72;;;10.29;56.47
22964;BME280;11648;49.306;6.934;2023-11-22T08:05:30;99404.22;;;10.28;56.86
22964;BME280;11648;49.306;6.934;2023-11-22T08:08:03;99398.94;;;10.28;56.46
22964;BME280;11648;49.306;6.934;2023-11-22T08:10:35;99394.59;;;10.27;56.41
22964;BME280;11648;49.306;6.934;2023-11-22T08:13:02;99403.44;;;10.41;56.57
22964;BME280;11648;49.306;6.934;2023-11-22T08:15:30;99414.00;;;10.53;56.56
22964;BME280;11648;49.306;6.934;2023-11-22T08:17:59;99406.22;;;10.82;56.57
22964;BME280;11648;49.306;6.934;2023-11-22T08:20:27;99409.81;;;11.25;55.91
22964;BME280;11648;49.306;6.934;2023-11-22T08:22:54;99413.38;;;11.57;55.06
22964;BME280;11648;49.306;6.934;2023-11-22T08:25:21;99404.63;;;11.78;52.72
22964;BME280;11648;49.306;6.934;2023-11-22T08:27:48;99410.75;;;11.89;52.26
22964;BME280;11648;49.306;6.934;2023-11-22T08:30:16;99411.63;;;11.71;51.82
22964;BME280;11648;49.306;6.934;2023-11-22T08:32:45;99423.06;;;11.63;51.85
22964;BME280;11648;49.306;6.934;2023-11-22T08:35:18;99420.41;;;11.34;52.19
22964;BME280;11648;49.306;6.934;2023-11-22T08:37:45;99430.88;;;11.11;52.52
22964;BME280;11648;49.306;6.934;2023-11-22T08:40:13;99453.69;;;10.94;52.96
22964;BME280;11648;49.306;6.934;2023-11-22T08:42:41;99450.19;;;11.04;52.98
22964;BME280;11648;49.306;6.934;2023-11-22T08:45:08;99465.91;;;10.77;53.87
22964;BME280;11648;49.306;6.934;2023-11-22T08:47:35;99471.13;;;10.68;54.49
22964;BME280;11648;49.306;6.934;2023-11-22T08:50:03;99471.06;;;10.60;54.46
22964;BME280;11648;49.306;6.934;2023-11-22T08:52:32;99464.97;;;10.67;54.46
22964;BME280;11648;49.306;6.934;2023-11-22T08:54:59;99460.59;;;10.66;54.57
22964;BME280;11648;49.306;6.934;2023-11-22T08:57:27;99458.63;;;10.29;52.94
22964;BME280;11648;49.306;6.934;2023-11-22T08:59:54;99458.66;;;10.35;52.54
22964;BME280;11648;49.306;6.934;2023-11-22T09:02:21;99449.88;;;10.33;50.83
22964;BME280;11648;49.306;6.934;2023-11-22T09:04:49;99444.06;;;9.63;50.75
22964;BME280;11648;49.306;6.934;2023-11-22T09:07:16;99434.63;;;9.88;49.77
22964;BME280;11648;49.306;6.934;2023-11-22T09:09:43;99419.72;;;9.84;48.47
22964;BME280;11648;49.306;6.934;2023-11-22T09:12:10;99406.34;;;9.60;46.71
22964;BME280;11648;49.306;6.934;2023-11-22T09:14:40;99402.00;;;9.60;47.55
22964;BME280;11648;49.306;6.934;2023-11-22T09:17:10;99389.91;;;9.83;47.80
22964;BME280;11648;49.306;6.934;2023-11-22T09:19:36;99383.66;;;9.69;47.52
22964;BME280;11648;49.306;6.934;2023-11-22T09:22:04;99385.47;;;9.73;47.07
22964;BME280;11648;49.306;6.934;2023-11-22T09:24:33;99387.50;;;10.17;46.34
22964;BME280;11648;49.306;6.934;2023-11-22T09:27:00;99396.88;;;9.80;45.95
22964;BME280;11648;49.306;6.934;2023-11-22T09:29:32;99402.13;;;9.77;45.46
22964;BME280;11648;49.306;6.934;2023-11-22T09:32:02;99394.41;;;10.01;44.34
22964;BME280;11648;49.306;6.934;2023-11-22T09:34:29;99395.44;;;10.23;44.59
22964;BME280;11648;49.306;6.934;2023-11-22T09:36:56;99395.41;;;10.18;44.54
22964;BME280;11648;49.306;6.934;2023-11-22T09:39:23;99396.31;;;10.28;43.62
22964;BME280;11648;49.306;6.934;2023-11-22T09:41:51;99385.09;;;10.74;43.07
22964;BME280;11648;49.306;6.934;2023-11-22T09:44:19;99390.41;;;10.85;42.72
22964;BME280;11648;49.306;6.934;2023-11-22T09:46:51;99398.41;;;11.21;41.83
22964;BME280;11648;49.306;6.934;2023-11-22T09:49:20;99408.09;;;11.50;41.11
22964;BME280;11648;49.306;6.934;2023-11-22T09:51:54;99419.53;;;12.02;40.16
22964;BME280;11648;49.306;6.934;2023-11-22T09:54:22;99419.09;;;13.23;38.65
22964;BME280;11648;49.306;6.934;2023-11-22T09:56:58;99402.88;;;15.82;35.91
22964;BME280;11648;49.306;6.934;2023-11-22T09:59:28;99358.81;;;19.33;29.96
22964;BME280;11648;49.306;6.934;2023-11-22T10:01:56;99349.00;;;23.15;26.18
22964;BME280;11648;49.306;6.934;2023-11-22T10:04:22;99327.31;;;25.24;21.09
22964;BME280;11648;49.306;6.934;2023-11-22T10:06:51;99337.34;;;26.87;20.25
22964;BME280;11648;49.306;6.934;2023-11-22T10:09:18;99338.66;;;29.30;17.92
22964;BME280;11648;49.306;6.934;2023-11-22T10:11:45;99364.44;;;28.35;16.68
22964;BME280;11648;49.306;6.934;2023-11-22T10:14:22;99366.22;;;30.32;16.16
22964;BME280;11648;49.306;6.934;2023-11-22T10:17:00;99356.28;;;31.01;15.75
22964;BME280;11648;49.306;6.934;2023-11-22T10:19:28;99347.22;;;31.67;15.30
22964;BME280;11648;49.306;6.934;2023-11-22T10:22:05;99402.00;;;32.27;15.15
22964;BME280;11648;49.306;6.934;2023-11-22T10:24:34;99394.63;;;32.71;13.47
22964;BME280;11648;49.306;6.934;2023-11-22T10:27:02;99392.09;;;34.58;13.71
22964;BME280;11648;49.306;6.934;2023-11-22T10:29:29;99396.56;;;35.34;12.20
22964;BME280;11648;49.306;6.934;2023-11-22T10:31:56;99400.03;;;35.27;12.48
22964;BME280;11648;49.306;6.934;2023-11-22T10:34:24;99404.53;;;35.55;12.04
22964;BME280;11648;49.306;6.934;2023-11-22T10:36:52;99392.84;;;35.26;11.77
22964;BME280;11648;49.306;6.934;2023-11-22T10:39:20;99390.50;;;35.58;11.61
22964;BME280;11648;49.306;6.934;2023-11-22T10:41:48;99386.75;;;33.19;12.74
22964;BME280;11648;49.306;6.934;2023-11-22T10:44:20;99374.00;;;35.03;12.53
22964;BME280;11648;49.306;6.934;2023-11-22T10:46:48;99364.75;;;35.51;11.54
22964;BME280;11648;49.306;6.934;2023-11-22T10:49:15;99379.75;;;36.01;11.75
22964;BME280;11648;49.306;6.934;2023-11-22T10:51:51;99385.19;;;34.63;11.95
22964;BME280;11648;49.306;6.934;2023-11-22T10:54:20;99389.22;;;34.69;12.32
22964;BME280;11648;49.306;6.934;2023-11-22T10:56:55;99397.63;;;32.68;12.79
22964;BME280;11648;49.306;6.934;2023-11-22T10:59:26;99404.59;;;33.63;12.17
22964;BME280;11648;49.306;6.934;2023-11-22T11:01:56;99397.59;;;35.24;12.08
22964;BME280;11648;49.306;6.934;2023-11-22T11:04:25;99406.53;;;35.26;11.82
22964;BME280;11648;49.306;6.934;2023-11-22T11:06:55;99412.56;;;36.21;12.18
22964;BME280;11648;49.306;6.934;2023-11-22T11:09:25;99405.28;;;32.42;13.23
22964;BME280;11648;49.306;6.934;2023-11-22T11:11:59;99409.59;;;33.58;12.58
22964;BME280;11648;49.306;6.934;2023-11-22T11:14:27;99415.19;;;31.57;14.12
22964;BME280;11648;49.306;6.934;2023-11-22T11:16:54;99417.41;;;30.14;14.80
22964;BME280;11648;49.306;6.934;2023-11-22T11:19:25;99423.06;;;30.11;14.57
22964;BME280;11648;49.306;6.934;2023-11-22T11:21:52;99422.75;;;30.97;14.04
22964;BME280;11648;49.306;6.934;2023-11-22T11:24:19;99425.56;;;30.73;14.32
22964;BME280;11648;49.306;6.934;2023-11-22T11:26:49;99430.09;;;31.96;14.24
22964;BME280;11648;49.306;6.934;2023-11-22T11:29:32;99420.63;;;33.47;12.95
22964;BME280;11648;49.306;6.934;2023-11-22T11:32:02;99425.53;;;33.53;12.54
22964;BME280;11648;49.306;6.934;2023-11-22T11:34:29;99418.34;;;33.52;13.28
22964;BME280;11648;49.306;6.934;2023-11-22T11:36:59;99418.28;;;34.60;12.33
22964;BME280;11648;49.306;6.934;2023-11-22T11:39:27;99413.72;;;35.27;12.05
22964;BME280;11648;49.306;6.934;2023-11-22T11:42:08;99428.09;;;35.75;11.57
22964;BME280;11648;49.306;6.934;2023-11-22T11:44:51;99424.25;;;33.26;12.32
22964;BME280;11648;49.306;6.934;2023-11-22T11:47:19;99439.00;;;32.41;13.10
22964;BME280;11648;49.306;6.934;2023-11-22T11:49:49;99426.59;;;33.10;12.59
22964;BME280;11648;49.306;6.934;2023-11-22T11:52:16;99427.81;;;33.17;13.01
22964;BME280;11648;49.306;6.934;2023-11-22T11:54:44;99433.84;;;33.72;12.61
22964;BME280;11648;49.306;6.934;2023-11-22T11:57:12;99430.28;;;32.79;13.05
22964;BME280;11648;49.306;6.934;2023-11-22T11:59:39;99443.63;;;31.42;13.80
22964;BME280;11648;49.306;6.934;2023-11-22T12:02:08;99447.00;;;30.06;14.38
22964;BME280;11648;49.306;6.934;2023-11-22T12:04:35;99447.09;;;28.01;16.17
22964;BME280;11648;49.306;6.934;2023-11-22T12:07:02;99450.78;;;27.86;16.28
22964;BME280;11648;49.306;6.934;2023-11-22T12:09:29;99447.44;;;26.83;16.60
22964;BME280;11648;49.306;6.934;2023-11-22T12:11:59;99460.97;;;25.44;17.51
22964;BME280;11648;49.306;6.934;2023-11-22T12:14:28;99465.19;;;22.59;20.05
22964;BME280;11648;49.306;6.934;2023-11-22T12:16:55;99472.00;;;21.83;21.09
22964;BME280;11648;49.306;6.934;2023-11-22T12:19:25;99472.22;;;20.59;22.39
22964;BME280;11648;49.306;6.934;2023-11-22T12:21:58;99471.41;;;19.50;23.75
22964;BME280;11648;49.306;6.934;2023-11-22T12:24:25;99482.63;;;18.35;25.43
22964;BME280;11648;49.306;6.934;2023-11-22T12:26:52;99473.56;;;18.07;25.82
22964;BME280;11648;49.306;6.934;2023-11-22T12:29:23;99460.91;;;17.00;26.95
22964;BME280;11648;49.306;6.934;2023-11-22T12:31:51;99456.22;;;16.69;28.30
22964;BME280;11648;49.306;6.934;2023-11-22T12:34:19;99465.31;;;16.59;28.55
22964;BME280;11648;49.306;6.934;2023-11-22T12:36:49;99462.41;;;15.67;29.37
22964;BME280;11648;49.306;6.934;2023-11-22T12:39:16;99474.56;;;15.84;29.86
22964;BME280;11648;49.306;6.934;2023-11-22T12:41:47;99474.88;;;15.64;29.82
22964;BME280;11648;49.306;6.934;2023-11-22T12:44:27;99470.88;;;15.31;30.17
22964;BME280;11648;49.306;6.934;2023-11-22T12:46:58;99472.97;;;15.06;31.15
22964;BME280;11648;49.306;6.934;2023-11-22T12:49:26;99457.75;;;15.20;30.33
22964;BME280;11648;49.306;6.934;2023-11-22T12:51:55;99446.91;;;15.39;30.33
22964;BME280;11648;49.306;6.934;2023-11-22T12:54:24;99455.03;;;14.56;31.45
22964;BME280;11648;49.306;6.934;2023-11-22T12:56:52;99474.03;;;14.08;31.83
22964;BME280;11648;49.306;6.934;2023-11-22T12:59:26;99474.09;;;14.00;32.26
22964;BME280;11648;49.306;6.934;2023-11-22T13:02:00;99485.31;;;14.26;32.41
22964;BME280;11648;49.306;6.934;2023-11-22T13:04:28;99492.59;;;14.03;32.62
22964;BME280;11648;49.306;6.934;2023-11-22T13:06:58;99499.34;;;14.42;32.18